Tiempo atmosférico en la estación meteorológica de Martinet, Lleida (1038 m.)



Fecha
DESCASC
Temp. máxima en grados centígrados (hora)
DESCASC
Temp. mínima en grados centígrados (hora)
DESCASC
Temp. media en grados centígrados
DESCASC
Racha de viento máxima en m/sg (hora)
DESCASC
Velocidad máxima media en intervalos de 10 minutos(hora)
DESCASC
Precipitaciones diarias en mm
DESCASC
Precipitaciones de 00:00 a 06:00 en mm
DESCASC
Precipitaciones de 06:00 a 12:00 en mm
DESCASC
Precipitaciones de 12:00 a 18:00 en mm
DESCASC
Precipitaciones de 18:00 a 24:00 en mm
DESCASC
19-09-2019 26.3 (15:50) 8.8 (07:20) 17.5 7.5 (14:40) 3.33 (14:20) 11 0 0 7.6 3.4
18-09-2019 27 (13:40) 11.5 (08:00) 19.3 8.61 (15:00) 4.17 (14:20) 8.6 0 0 7.2 1.4
17-09-2019 29.4 (15:40) 11.4 (00:00) 20.4 8.33 (19:30) 4.44 (18:20) 0 0 0 0 0
16-09-2019 28.4 (16:50) 9.5 (00:00) 18.9 7.78 (17:30) 3.33 (17:30) 0 0 0 0 0
15-09-2019 27.4 (15:00) 12.5 (00:00) 19.9 8.33 (18:00) 5 (18:00) 5 5 0 0 0
14-09-2019 27.4 (15:20) 11.7 (00:00) 19.5 9.17 (12:40) 4.44 (21:00) 7 0 0 0 7
13-09-2019 23.2 (15:40) 6.5 (00:00) 14.9 10 (13:20) 5.83 (13:20) 0 0 0 0 0
12-09-2019 27.1 (16:50) 5.7 (00:00) 16.4 11.39 (19:40) 7.5 (19:40) 0 0 0 0 0
11-09-2019 18.9 (15:10) 9.9 (00:00) 14.4 12.78 (14:50) 7.78 (15:00) 0 0 0 0 0
10-09-2019 14.6 (00:00) 7 (09:50) 10.8 12.78 (06:30) 6.94 (18:10) 12 1.2 10.4 0.2 0.2
09-09-2019 24.7 (17:00) 5.5 (07:30) 15.1 9.72 (13:00) 4.72 (13:10) 0 0 0 0 0
08-09-2019 25 (15:30) 4.3 (00:00) 14.7 10.28 (20:40) 6.11 (20:50) 0 0 0 0 0
07-09-2019 25.6 (17:00) 2 (00:00) 13.8 8.61 (19:50) 3.89 (21:00) 0 0 0 0 0
06-09-2019 25.1 (16:20) 2.8 (00:00) 14 10 (18:20) 6.39 (17:50) 0 0 0 0 0
05-09-2019 26.4 (15:10) 9.5 (00:00) 17.9 10.83 (18:30) 5.83 (17:20) 0 0 0 0 0
04-09-2019 29.8 (16:20) 6.3 (00:00) 18 9.17 (20:20) 6.39 (20:10) 0 0 0 0 0
03-09-2019 30.4 (16:20) 4.4 (00:00) 17.4 5.56 (19:00) 2.78 (17:10) 0 0 0 0 0
02-09-2019 27.2 (15:50) 11.8 (00:00) 19.5 10.83 (18:10) 7.78 (18:10) 0 0 0 0 0
01-09-2019 28 (17:00) 10.7 (00:00) 19.3 10.83 (19:00) 7.22 (19:10) 0 0 0 0 0
31-08-2019 30.7 (15:40) 10 (00:00) 20.4 8.61 (17:10) 4.72 (18:00) 0 0 0 0 0
30-08-2019 29.9 (15:20) 12.1 (00:00) 21 6.67 (17:20) 3.33 (17:20) 0.2 0 0 0.2 0
29-08-2019 30.7 (15:40) 10.5 (00:00) 20.6 11.11 (18:40) 6.39 (18:40) 12.4 0 0 2.2 10.2
28-08-2019 28.2 (14:00) 10.8 (00:00) 19.5 6.39 (20:10) 3.89 (18:50) 0 0 0 0 0
27-08-2019 23.8 (17:10) 13.9 (00:00) 18.8 6.39 (03:40) 2.78 (12:00) 0 0 0 0 0
26-08-2019 29.2 (15:40) 11.1 (00:00) 20.2 7.5 (17:00) 3.33 (16:50) 0 0 0 0 0
25-08-2019 30.6 (15:50) 10.2 (00:00) 20.4 7.5 (21:30) 4.17 (21:00) 0 0 0 0 0
24-08-2019 30.6 (15:20) 10.8 (00:00) 20.7 9.17 (18:50) 4.44 (20:00) 0 0 0 0 0
23-08-2019 29.5 (17:20) 7.8 (00:00) 18.7 5.83 (15:00) 2.5 (15:00) 0 0 0 0 0

Gráficas

Temp. máximas Temp. mínimas Temp. medias Precipitaciones Rachas de viento máximas Velocidades máximas media en intervalos de 10 minutos

Datos horarios

Fecha y hora oficial Temperatura (ºC) Velocidad del viento (km/h) Dirección del viento Racha (km/h) Dirección de racha Precipitación (mm) Presión (hPa) Tendencia (hPa) Humedad (%)
2019-09-21 23:00:00 12.8 2 Oeste 4 Oeste 0 -- -- 92
2019-09-21 22:00:00 13.6 0 Calma 8 Norte 0 -- -- 88
2019-09-21 21:00:00 14.9 0 Calma 7 Oeste 0 -- -- 85
2019-09-21 20:00:00 17 0 Calma 14 Este 0 -- -- 77
2019-09-21 19:00:00 18.6 11 Este 24 Este 0 -- -- 70
2019-09-21 18:00:00 21.3 11 Este 20 Este 0 -- -- 59
2019-09-21 17:00:00 22.4 5 Sudoeste 22 Oeste 0.2 -- -- 56
2019-09-21 16:00:00 20.6 4 Sur 12 Sur 0 -- -- 68
2019-09-21 15:00:00 19.6 3 Oeste 6 Oeste 0 -- -- 74
2019-09-21 14:00:00 18.2 3 Noroeste 9 Este 0 -- -- 77
2019-09-21 13:00:00 16 3 Este 8 Este 0 -- -- 90
2019-09-21 12:00:00 16.1 5 Noroeste 9 Noroeste 0 -- -- 88
2019-09-21 11:00:00 14.3 4 Oeste 17 Oeste 1.8 -- -- 94
2019-09-21 10:00:00 12.7 8 Oeste 24 Oeste 1.4 -- -- 95
2019-09-21 09:00:00 12.5 2 Oeste 8 Sudoeste 0 -- -- 91
2019-09-21 08:00:00 11.5 2 Oeste 8 Este 0 -- -- 95
2019-09-21 07:00:00 11.1 2 Sudoeste 8 Sur 0 -- -- 96
2019-09-21 06:00:00 11.4 0 Calma 10 Este 0 -- -- 96
2019-09-21 05:00:00 11.2 2 Sudeste 6 Sur 0 -- -- 96
2019-09-21 04:00:00 11.2 2 Sudeste 7 Nordeste 0 -- -- 95
2019-09-21 03:00:00 12 3 Nordeste 7 Nordeste 0 -- -- 92
2019-09-21 02:00:00 12.8 3 Noroeste 6 Nordeste 0 -- -- 91
2019-09-21 01:00:00 13.7 0 Calma 5 Oeste 0 -- -- 89
2019-09-21 00:00:00 14.1 2 Oeste 9 Norte 0 -- -- 87
2019-09-20 23:00:00 14.7 3 Norte 5 Oeste 0 -- -- 84
2019-09-20 22:00:00 15.4 2 Oeste 7 Oeste 0 -- -- 82
2019-09-20 21:00:00 16.6 2 Noroeste 7 Oeste 0 -- -- 76
2019-09-20 20:00:00 18.9 0 Calma 6 Nordeste 0 -- -- 70
2019-09-20 19:00:00 21.6 0 Calma 13 Sur 0 -- -- 57
2019-09-20 18:00:00 23.1 6 Sudoeste 17 Sudoeste 0 -- -- 53
2019-09-20 17:00:00 24.1 8 Oeste 22 Oeste 0 -- -- 52
2019-09-20 16:00:00 23.2 4 Oeste 22 Oeste 0 -- -- 55
2019-09-20 15:00:00 23.7 10 Oeste 19 Oeste 0 -- -- 52
2019-09-20 14:00:00 21.2 6 Sudoeste 13 Sudoeste 0 -- -- 64
2019-09-20 13:00:00 19.3 3 Sur 8 Sur 0 -- -- 74
2019-09-20 12:00:00 16.3 3 Sudeste 8 Sudeste 0 -- -- 81
2019-09-20 11:00:00 13 2 Este 9 Este 0 -- -- 93
2019-09-20 10:00:00 11.7 4 Este 9 Este 0 -- -- 97
2019-09-20 09:00:00 11.3 4 Nordeste 9 Este 0 -- -- 97
2019-09-20 08:00:00 11.4 3 Sudeste 10 Este 0 -- -- 97
2019-09-20 07:00:00 11.6 2 Este 8 Nordeste 0 -- -- 97
2019-09-20 06:00:00 11.8 0 Calma 6 Este 0 -- -- 97
2019-09-20 05:00:00 11.6 4 Este 10 Nordeste 0 -- -- 98
2019-09-20 04:00:00 11.6 0 Calma 10 Este 0 -- -- 98
2019-09-20 03:00:00 11.3 0 Calma 5 Norte 0 -- -- 96
2019-09-20 02:00:00 11.5 3 Norte 6 Norte 0 -- -- 94
2019-09-20 01:00:00 11.8 4 Norte 8 Noroeste 0 -- -- 94
2019-09-20 00:00:00 12.5 2 Nordeste 5 Norte 0 -- -- 94
2019-09-19 23:00:00 13.3 0 Calma 4 Norte 0.2 -- -- 94
2019-09-19 22:00:00 14 0 Calma 6 Norte 0.4 -- -- 94
2019-09-19 21:00:00 14.5 0 Calma 5 Norte 0 -- -- 93
2019-09-19 20:00:00 14.9 2 Noroeste 9 Sudeste 0 -- -- 92
2019-09-19 19:00:00 15.4 2 Sudeste 9 Sudeste 2.8 -- -- 91
2019-09-19 18:00:00 16.8 4 Sudeste 25 Norte 7.6 -- -- 79
2019-09-19 17:00:00 22.5 9 Norte 24 Noroeste 0 -- -- 46
2019-09-19 16:00:00 25.8 8 Oeste 21 Oeste 0 -- -- 39
2019-09-19 15:00:00 25.1 8 Oeste 27 Oeste 0 -- -- 44
2019-09-19 14:00:00 24 12 Oeste 27 Oeste 0 -- -- 47
2019-09-19 13:00:00 20.8 3 Sur 9 Sudeste 0 -- -- 61
2019-09-19 12:00:00 17.1 4 Sudeste 9 Sur 0 -- -- 70
2019-09-19 11:00:00 13.1 4 Sudeste 11 Este 0 -- -- 96
2019-09-19 10:00:00 10.7 3 Este 10 Este 0 -- -- 100
2019-09-19 09:00:00 9.6 3 Este 9 Este 0 -- -- 100
2019-09-19 08:00:00 9.1 0 Calma 8 Este 0 -- -- 99
2019-09-19 07:00:00 9.2 2 Nordeste 5 Sudeste 0 -- -- 99
2019-09-19 06:00:00 9.5 2 Nordeste 12 Nordeste 0 -- -- 99
2019-09-19 05:00:00 9.6 2 Sudeste 6 Norte 0 -- -- 98
2019-09-19 04:00:00 9.9 0 Calma 4 Norte 0 -- -- 97
2019-09-19 03:00:00 10.7 0 Calma 12 Este 0 -- -- 98
2019-09-19 02:00:00 10.6 3 Nordeste 8 Norte 0 -- -- 96
2019-09-19 01:00:00 11.2 2 Norte 5 Norte 0 -- -- 95
2019-09-19 00:00:00 12.1 0 Calma 16 Nordeste 0 -- -- 94
2019-09-18 23:00:00 12.9 13 Nordeste 26 Este 0 -- -- 93
2019-09-18 22:00:00 13.4 3 Oeste 14 Norte 0.4 -- -- 92
2019-09-18 21:00:00 13.4 3 Oeste 13 Sur 0.4 -- -- 95
2019-09-18 20:00:00 13.6 3 Sudeste 18 Sur 0.4 -- -- 93
2019-09-18 19:00:00 13.7 9 Este 21 Este 0.2 -- -- 91
2019-09-18 18:00:00 13.9 4 Noroeste 22 Nordeste 0.2 -- -- 90
2019-09-18 17:00:00 14.5 9 Nordeste 23 Este 6.4 -- -- 88
2019-09-18 16:00:00 18.8 9 Nordeste 29 Sur 0.6 -- -- 68
2019-09-18 15:00:00 24.3 14 Oeste 31 Oeste 0 -- -- 42
2019-09-18 14:00:00 25.6 6 Oeste 21 Oeste 0 -- -- 40
2019-09-18 13:00:00 25.8 8 Oeste 19 Oeste 0 -- -- 44
2019-09-18 12:00:00 22.2 3 Sur 9 Sudeste 0 -- -- 56
2019-09-18 11:00:00 18.1 2 Sudeste 7 Este 0 -- -- 73
2019-09-18 10:00:00 14.7 3 Sudoeste 6 Sudeste 0 -- -- 86
2019-09-18 09:00:00 12.8 0 Calma 5 Nordeste 0 -- -- 91
2019-09-18 08:00:00 11.5 3 Norte 5 Nordeste 0 -- -- 94
2019-09-18 07:00:00 12.1 2 Este 5 Norte 0 -- -- 92
2019-09-18 06:00:00 12.8 3 Norte 8 Este 0 -- -- 93
2019-09-18 05:00:00 13.3 2 Sur 7 Nordeste 0 -- -- 92
2019-09-18 04:00:00 13.7 2 Nordeste 5 Nordeste 0 -- -- 88
2019-09-18 03:00:00 14 0 Calma 8 Nordeste 0 -- -- 85
2019-09-18 02:00:00 15.2 0 Calma 10 Este 0 -- -- 85
2019-09-18 01:00:00 16.5 0 Calma 5 Norte 0 -- -- 82
2019-09-18 00:00:00 17.6 0 Calma 4 Este 0 -- -- 77
2019-09-17 23:00:00 18.6 0 Calma 5 Este 0 -- -- 73
2019-09-17 22:00:00 19.7 2 Sudeste 14 Nordeste 0 -- -- 67
2019-09-17 21:00:00 20.6 10 Nordeste 23 Este 0 -- -- 63
2019-09-15 18:00:00 25.1 18 Este 30 Este 0 -- -- 42
2019-09-15 17:00:00 26.5 13 Este 26 Este 0 -- -- 38
2019-09-15 16:00:00 27.2 9 Este 23 Este 0 -- -- 40
2019-09-15 15:00:00 27.4 4 Este 11 Nordeste 0 -- -- 40
2019-09-15 14:00:00 24.2 5 Sudoeste 10 Oeste 0 -- -- 67
2019-09-15 13:00:00 19.8 2 Oeste 7 Sudoeste 0 -- -- 74
2019-09-15 12:00:00 17.8 3 Sur 5 Oeste 0 -- -- 85
2019-09-15 11:00:00 16.1 3 Sudoeste 12 Sudeste 0 -- -- 90
2019-09-15 10:00:00 14.2 3 Sur 14 Este 0 -- -- 96
2019-09-15 09:00:00 13 6 Este 14 Este 0 -- -- 98
2019-09-15 08:00:00 12.7 2 Este 10 Este 0 -- -- 98
2019-09-15 07:00:00 12.6 0 Calma 5 Norte 0 -- -- 96
2019-09-15 06:00:00 13.5 2 Nordeste 4 Norte 0.2 -- -- 95
2019-09-15 05:00:00 13.8 3 Este 12 Nordeste 0 -- -- 95
2019-09-15 04:00:00 13.8 6 Este 21 Sudoeste 1.6 -- -- 96
2019-09-15 03:00:00 14 6 Norte 13 Sudoeste 2.2 -- -- 96
2019-09-15 02:00:00 14.1 0 Calma 10 Este 0 -- -- 95
2019-09-15 01:00:00 14.2 4 Este 10 Nordeste 1 -- -- 95
2019-09-15 00:00:00 14.3 6 Norte 27 Este 2.4 -- -- 94
2019-09-14 23:00:00 14.4 11 Este 26 Nordeste 1.8 -- -- 92
2019-09-14 22:00:00 15.2 4 Nordeste 23 Este 2.2 -- -- 90
2019-09-14 21:00:00 18.9 16 Este 30 Este 0.6 -- -- 65
2019-09-14 20:00:00 20.9 2 Nordeste 10 Este 0 -- -- 47
2019-09-14 19:00:00 22.5 4 Nordeste 23 Este 0 -- -- 41
2019-09-14 18:00:00 22.8 9 Nordeste 25 Nordeste 0 -- -- 40
2019-09-14 17:00:00 24 14 Este 24 Este 0 -- -- 38
2019-09-14 16:00:00 26.5 11 Este 22 Este 0 -- -- 36
2019-09-14 15:00:00 26.7 14 Nordeste 29 Este 0 -- -- 36
2019-09-14 14:00:00 25.9 4 Nordeste 23 Este 0 -- -- 40
2019-09-14 13:00:00 23.3 12 Este 33 Este 0 -- -- 45
2019-09-14 12:00:00 23.6 4 Este 9 Este 0 -- -- 45
2019-09-14 11:00:00 18.7 3 Sudeste 13 Este 0 -- -- 55
2019-09-14 10:00:00 15.2 2 Sudeste 4 Sudeste 0 -- -- 68
2019-09-14 09:00:00 12.1 2 Sur 8 Este 0 -- -- 82
2019-09-14 08:00:00 11.8 3 Nordeste 8 Sudeste 0 -- -- 78
2019-09-14 07:00:00 12.6 2 Sur 18 Este 0 -- -- 74
2019-09-14 06:00:00 13.3 2 Este 8 Este 0 -- -- 70
2019-09-14 05:00:00 14.1 2 Este 13 Este 0 -- -- 67
2019-09-14 04:00:00 14.6 3 Este 26 Este 0 -- -- 64
2019-09-14 03:00:00 14.8 11 Nordeste 22 Nordeste 0 -- -- 61
2019-09-14 02:00:00 14.3 3 Este 10 Oeste 0 -- -- 69
2019-09-14 01:00:00 13.9 2 Sudoeste 11 Oeste 0 -- -- 73
2019-09-14 00:00:00 13.6 3 Norte 6 Norte 0 -- -- 72
2019-09-13 23:00:00 13.7 0 Calma 6 Sudeste 0 -- -- 67
2019-09-13 22:00:00 15.3 3 Nordeste 8 Norte 0 -- -- 61
2019-09-13 21:00:00 17.3 3 Noroeste 9 Nordeste 0 -- -- 53
2019-09-13 20:00:00 20.5 2 Este 17 Este 0 -- -- 46
2019-09-13 19:00:00 22 2 Sudeste 14 Este 0 -- -- 44
2019-09-13 18:00:00 22.5 5 Este 17 Nordeste 0 -- -- 42
2019-09-13 17:00:00 22.8 10 Este 21 Este 0 -- -- 37
2019-09-13 16:00:00 23.2 5 Este 18 Este 0 -- -- 38
2019-09-13 15:00:00 21.7 3 Nordeste 33 Nordeste 0 -- -- 40
2019-09-13 14:00:00 22.5 9 Nordeste 36 Este 0 -- -- 39
2019-09-13 13:00:00 20.1 3 Oeste 9 Oeste 0 -- -- 54
2019-09-13 12:00:00 18.7 3 Sur 12 Este 0 -- -- 49
2019-09-13 11:00:00 15.9 4 Sudeste 17 Este 0 -- -- 54
2019-09-13 10:00:00 13 8 Este 15 Este 0 -- -- 66
2019-09-13 09:00:00 8.5 3 Sudeste 8 Nordeste 0 -- -- 87
2019-09-13 08:00:00 6.6 2 Este 8 Este 0 -- -- 93
2019-09-13 07:00:00 6.8 4 Nordeste 9 Este 0 -- -- 92
2019-09-13 06:00:00 7.5 4 Este 10 Este 0 -- -- 92
2019-09-13 05:00:00 8.3 2 Sur 7 Sudeste 0 -- -- 90
2019-09-13 04:00:00 8.7 3 Nordeste 4 Nordeste 0 -- -- 86
2019-09-13 03:00:00 9.7 0 Calma 5 Norte 0 -- -- 84
2019-09-13 02:00:00 10.7 2 Este 5 Sudeste 0 -- -- 82
2019-09-13 01:00:00 11.5 3 Oeste 6 Sudeste 0 -- -- 80
2019-09-13 00:00:00 12.7 3 Norte 12 Norte 0 -- -- 72
2019-09-12 23:00:00 13.9 5 Norte 15 Norte 0 -- -- 69
2019-09-12 22:00:00 15.1 5 Norte 14 Norte 0 -- -- 66
2019-09-12 21:00:00 18.3 10 Nordeste 24 Este 0 -- -- 55
2019-09-12 20:00:00 21.1 14 Este 41 Este 0 -- -- 47
2019-09-12 19:00:00 23.4 9 Este 38 Este 0 -- -- 41
2019-09-12 18:00:00 25.8 19 Este 33 Este 0 -- -- 31
2019-09-12 17:00:00 27.1 12 Este 24 Este 0 -- -- 28
2019-09-12 16:00:00 26.7 14 Este 24 Este 0 -- -- 26
2019-09-12 15:00:00 26.5 9 Este 20 Este 0 -- -- 25
2019-09-12 14:00:00 25.6 5 Sur 9 Sudoeste 0 -- -- 33
2019-09-12 13:00:00 23.1 2 Sudoeste 11 Sudoeste 0 -- -- 34
2019-09-12 12:00:00 19.6 4 Sudoeste 9 Este 0 -- -- 50
2019-09-12 11:00:00 14.8 4 Este 11 Este 0 -- -- 68
2019-09-12 10:00:00 11.5 4 Este 16 Este 0 -- -- 81
2019-09-12 09:00:00 8.2 8 Este 16 Este 0 -- -- 95
2019-09-12 08:00:00 5.7 2 Este 6 Nordeste 0 -- -- 97
2019-09-12 07:00:00 5.9 2 Nordeste 5 Nordeste 0 -- -- 96
2019-09-12 06:00:00 6.5 2 Este 5 Norte 0 -- -- 95
2019-09-12 05:00:00 7 0 Calma 5 Norte 0 -- -- 94
2019-09-12 04:00:00 7.5 3 Nordeste 6 Nordeste 0 -- -- 93
2019-09-12 03:00:00 8.2 2 Nordeste 5 Nordeste 0 -- -- 92
2019-09-12 02:00:00 8.7 0 Calma 11 Nordeste 0 -- -- 90
2019-09-12 01:00:00 9.4 3 Norte 8 Nordeste 0 -- -- 87
2019-09-12 00:00:00 10 3 Sudoeste 9 Nordeste 0 -- -- 86
2019-09-11 23:00:00 11.2 0 Calma 9 Norte 0 -- -- 82
2019-09-11 22:00:00 12.9 6 Nordeste 17 Este 0 -- -- 75
2019-09-11 21:00:00 14 6 Nordeste 13 Este 0 -- -- 72
2019-09-11 20:00:00 16.4 4 Este 30 Este 0 -- -- 63
2019-09-11 19:00:00 17.7 14 Este 40 Este 0 -- -- 58
2019-09-11 18:00:00 18.2 23 Este 40 Nordeste 0 -- -- 56
2019-09-11 17:00:00 18.3 18 Nordeste 39 Este 0 -- -- 58
2019-09-11 16:00:00 18.2 26 Este 46 Este 0 -- -- 57
2019-09-11 15:00:00 18.5 28 Este 46 Nordeste 0 -- -- 56
2019-09-11 14:00:00 15.9 22 Este 39 Este 0 -- -- 65
2019-09-11 13:00:00 14.5 5 Sudeste 24 Este 0 -- -- 68
2019-09-11 12:00:00 13.7 8 Este 28 Este 0 -- -- 71
2019-09-11 11:00:00 13 6 Sudeste 33 Este 0 -- -- 73
2019-09-11 10:00:00 12.6 6 Este 21 Este 0 -- -- 73
2019-09-11 09:00:00 12.2 6 Nordeste 42 Este 0 -- -- 76
2019-09-11 08:00:00 12 6 Nordeste 26 Este 0 -- -- 72
2019-09-11 07:00:00 10.4 4 Norte 14 Nordeste 0 -- -- 79
2019-09-11 06:00:00 10.1 3 Norte 9 Nordeste 0 -- -- 79
2019-09-11 05:00:00 10.7 7 Nordeste 19 Este 0 -- -- 75
2019-09-11 04:00:00 11.3 14 Este 30 Este 0 -- -- 70
2019-09-11 03:00:00 11.3 10 Este 40 Este 0 -- -- 70
2019-09-11 02:00:00 11 7 Nordeste 26 Norte 0 -- -- 72
2019-09-11 01:00:00 10.3 8 Nordeste 28 Nordeste 0 -- -- 75
2019-09-11 00:00:00 9.9 10 Nordeste 36 Este 0 -- -- 76
2019-09-10 23:00:00 8.8 3 Norte 11 Este 0 -- -- 78
2019-09-10 22:00:00 8.8 4 Este 22 Este 0 -- -- 72
2019-09-10 21:00:00 9.2 12 Este 25 Este 0 -- -- 70
2019-09-10 20:00:00 9.1 14 Este 29 Este 0 -- -- 74
2019-09-10 19:00:00 8.9 14 Este 40 Este 0.2 -- -- 80
2019-09-10 18:00:00 11.4 18 Este 31 Este 0 -- -- 66
2019-09-10 17:00:00 11.3 7 Este 30 Nordeste 0 -- -- 66
2019-09-10 16:00:00 11.2 21 Este 35 Este 0 -- -- 66
2019-09-10 15:00:00 10.5 19 Este 37 Este 0 -- -- 70
2019-09-10 14:00:00 9.6 18 Este 32 Este 0.2 -- -- 75
2019-09-10 13:00:00 9.3 17 Este 37 Este 0 -- -- 75
2019-09-10 12:00:00 8.9 10 Este 29 Este 0 -- -- 85
2019-09-10 11:00:00 7.6 7 Este 32 Este 0 -- -- 90
2019-09-10 10:00:00 7.1 18 Este 34 Este 3 -- -- 94
2019-09-10 09:00:00 7.9 18 Este 41 Este 3.2 -- -- 90
2019-09-10 08:00:00 9.4 13 Este 40 Este 0.6 -- -- 88
2019-09-10 07:00:00 9.8 15 Este 46 Este 3.6 -- -- 91
2019-09-10 06:00:00 10.6 11 Nordeste 31 Este 1.2 -- -- 85
2019-09-10 05:00:00 12.1 6 Nordeste 18 Este 0 -- -- 72
2019-09-10 04:00:00 11.5 2 Nordeste 5 Nordeste 0 -- -- 73
2019-09-10 03:00:00 12.2 4 Sur 16 Este 0 -- -- 71
2019-09-10 02:00:00 13.4 3 Oeste 5 Noroeste 0 -- -- 66
2019-09-10 01:00:00 14 3 Noroeste 8 Norte 0 -- -- 60
2019-09-10 00:00:00 14.6 2 Norte 6 Norte 0 -- -- 58
2019-09-09 23:00:00 14.8 0 Calma 4 Norte 0 -- -- 54
2019-09-09 22:00:00 15.6 3 Norte 5 Noroeste 0 -- -- 52
2019-09-09 21:00:00 17.6 0 Calma 8 Noroeste 0 -- -- 46
2019-09-09 20:00:00 19.7 5 Sudoeste 25 Sudoeste 0 -- -- 38
2019-09-09 19:00:00 20.8 9 Sudoeste 21 Oeste 0 -- -- 36
2019-09-09 18:00:00 22 12 Sudoeste 30 Sudoeste 0 -- -- 32
2019-09-09 17:00:00 24.7 10 Oeste 33 Oeste 0 -- -- 27
2019-09-09 16:00:00 24.1 15 Oeste 32 Oeste 0 -- -- 27
2019-09-09 15:00:00 23.7 14 Oeste 32 Oeste 0 -- -- 30
2019-09-09 14:00:00 23.2 12 Oeste 31 Oeste 0 -- -- 27
2019-09-09 13:00:00 21.6 16 Oeste 35 Oeste 0 -- -- 30
2019-09-09 12:00:00 19.8 12 Oeste 26 Oeste 0 -- -- 39
2019-09-09 11:00:00 14.4 4 Oeste 9 Oeste 0 -- -- 68
2019-09-09 10:00:00 11.1 3 Sudeste 7 Este 0 -- -- 77
2019-09-09 09:00:00 7.1 0 Calma 4 Este 0 -- -- 92
2019-09-09 08:00:00 5.8 0 Calma 5 Nordeste 0 -- -- 94
2019-09-09 07:00:00 5.8 2 Norte 4 Nordeste 0 -- -- 91
2019-09-09 06:00:00 6.2 0 Calma 5 Sudeste 0 -- -- 92
2019-09-09 05:00:00 5.9 0 Calma 6 Sudeste 0 -- -- 91
2019-09-09 04:00:00 6.6 0 Calma 4 Norte 0 -- -- 88
2019-09-09 03:00:00 7.5 3 Este 4 Norte 0 -- -- 86
2019-09-09 02:00:00 8.4 2 Nordeste 5 Norte 0 -- -- 83
2019-09-09 01:00:00 9.4 3 Norte 6 Norte 0 -- -- 79
2019-09-09 00:00:00 10.7 0 Calma 7 Norte 0 -- -- 73
2019-09-08 23:00:00 12.1 0 Calma 9 Norte 0 -- -- 67
2019-09-08 22:00:00 14.3 2 Este 23 Este 0 -- -- 59
2019-09-08 21:00:00 16.3 12 Nordeste 37 Este 0 -- -- 51
2019-09-08 20:00:00 19.2 9 Oeste 29 Oeste 0 -- -- 45
2019-09-08 19:00:00 21.6 13 Oeste 34 Oeste 0 -- -- 38
2019-09-08 18:00:00 23.5 11 Oeste 32 Sudoeste 0 -- -- 33
2019-09-08 17:00:00 24.2 15 Oeste 34 Oeste 0 -- -- 30
2019-09-08 16:00:00 24.8 14 Oeste 33 Oeste 0 -- -- 29
2019-09-08 15:00:00 24.7 11 Oeste 23 Oeste 0 -- -- 25
2019-09-08 14:00:00 23.5 13 Oeste 27 Oeste 0 -- -- 26
2019-09-08 13:00:00 22.3 11 Oeste 28 Sudoeste 0 -- -- 32
2019-09-08 12:00:00 19.1 5 Sudeste 13 Sudoeste 0 -- -- 44
2019-09-08 11:00:00 13.4 4 Sudeste 9 Sur 0 -- -- 59
2019-09-08 10:00:00 10 3 Sudeste 6 Este 0 -- -- 74
2019-09-08 09:00:00 6.1 2 Sudeste 4 Sudeste 0 -- -- 88
2019-09-08 08:00:00 4.3 2 Nordeste 4 Nordeste 0 -- -- 92
2019-09-08 07:00:00 4.7 0 Calma 4 Este 0 -- -- 90
2019-09-08 06:00:00 5.4 2 Sudeste 4 Sur 0 -- -- 87
2019-09-08 05:00:00 6.2 0 Calma 4 Norte 0 -- -- 83
2019-09-08 04:00:00 7.2 0 Calma 4 Norte 0 -- -- 79
2019-09-08 03:00:00 7.6 0 Calma 6 Norte 0 -- -- 77
2019-09-08 02:00:00 8.5 0 Calma 8 Nordeste 0 -- -- 72
2019-09-08 01:00:00 9.7 0 Calma 6 Noroeste 0 -- -- 69
2019-09-08 00:00:00 10.9 3 Oeste 6 Norte 0 -- -- 64
2019-09-07 23:00:00 12.6 4 Norte 15 Nordeste 0 -- -- 57
2019-09-07 22:00:00 14.4 4 Nordeste 20 Este 0 -- -- 49
2019-09-07 21:00:00 16.4 14 Este 29 Este 0 -- -- 44
2019-09-07 20:00:00 19.3 6 Este 31 Este 0 -- -- 36
2019-09-07 19:00:00 22.3 8 Oeste 31 Oeste 0 -- -- 28
2019-09-07 18:00:00 24.3 14 Oeste 24 Oeste 0 -- -- 25
2019-09-07 17:00:00 25.6 10 Oeste 23 Oeste 0 -- -- 19
2019-09-07 16:00:00 25.3 9 Oeste 25 Oeste 0 -- -- 18
2019-09-07 15:00:00 24.5 10 Oeste 22 Oeste 0 -- -- 21
2019-09-07 14:00:00 23.8 4 Sudoeste 12 Este 0 -- -- 19
2019-09-07 13:00:00 22 4 Este 16 Este 0 -- -- 20
2019-09-07 12:00:00 17.9 3 Sudeste 8 Sur 0 -- -- 33
2019-09-07 11:00:00 11.9 4 Sur 10 Sur 0 -- -- 49
2019-09-07 10:00:00 9.1 4 Este 13 Este 0 -- -- 63
2019-09-07 09:00:00 3.7 3 Sudoeste 8 Este 0 -- -- 86
2019-09-07 08:00:00 2.1 2 Nordeste 7 Norte 0 -- -- 89
2019-09-07 07:00:00 2.4 0 Calma 5 Este 0 -- -- 88
2019-09-07 06:00:00 3.3 2 Nordeste 5 Nordeste 0 -- -- 82
2019-09-07 05:00:00 4.2 2 Nordeste 5 Nordeste 0 -- -- 79
2019-09-07 04:00:00 5.1 2 Nordeste 9 Norte 0 -- -- 74
2019-09-07 03:00:00 6.5 3 Norte 6 Norte 0 -- -- 68
2019-09-07 02:00:00 6.9 0 Calma 5 Oeste 0 -- -- 68
2019-09-07 01:00:00 7.6 3 Oeste 8 Noroeste 0 -- -- 65
2019-09-07 00:00:00 9 2 Oeste 12 Norte 0 -- -- 59
2019-09-06 23:00:00 10.2 2 Norte 13 Norte 0 -- -- 54
2019-09-06 22:00:00 12.1 3 Norte 13 Este 0 -- -- 47
2019-09-06 21:00:00 15 3 Nordeste 16 Sudeste 0 -- -- 39
2019-09-06 20:00:00 18.2 17 Este 32 Este 0 -- -- 29
2019-09-06 19:00:00 20.2 17 Este 36 Este 0 -- -- 27
2019-09-06 18:00:00 21.9 22 Este 35 Este 0 -- -- 22
2019-09-06 17:00:00 23.5 13 Este 26 Nordeste 0 -- -- 20
2019-09-06 16:00:00 24.1 4 Este 20 Este 0 -- -- 19
2019-09-06 15:00:00 22.8 10 Nordeste 24 Este 0 -- -- 20
2019-09-06 14:00:00 22 10 Este 22 Este 0 -- -- 24
2019-09-06 13:00:00 20.4 8 Este 22 Este 0 -- -- 27
2019-09-06 12:00:00 18.1 14 Este 28 Este 0 -- -- 33
2019-09-06 11:00:00 13.9 6 Nordeste 15 Este 0 -- -- 47
2019-09-06 10:00:00 9.7 4 Sudeste 9 Sur 0 -- -- 63
2019-09-06 09:00:00 5.3 2 Este 6 Nordeste 0 -- -- 82
2019-09-06 08:00:00 2.9 3 Este 5 Norte 0 -- -- 89
2019-09-06 07:00:00 3.6 2 Este 6 Este 0 -- -- 84
2019-09-06 06:00:00 4.3 0 Calma 9 Nordeste 0 -- -- 81
2019-09-06 05:00:00 4.4 2 Oeste 6 Norte 0 -- -- 81
2019-09-06 04:00:00 5.2 3 Norte 7 Norte 0 -- -- 77
2019-09-06 03:00:00 6 2 Oeste 6 Oeste 0 -- -- 75
2019-09-06 02:00:00 6.8 0 Calma 7 Norte 0 -- -- 72
2019-09-06 01:00:00 7.9 3 Noroeste 9 Noroeste 0 -- -- 65
2019-09-06 00:00:00 9.6 3 Noroeste 13 Este 0 -- -- 58
2019-09-05 23:00:00 12.5 5 Norte 27 Este 0 -- -- 49
2019-09-05 22:00:00 13.9 13 Nordeste 32 Este 0 -- -- 42
2019-09-05 21:00:00 14.9 11 Nordeste 36 Este 0 -- -- 37
2019-09-05 20:00:00 17.3 7 Norte 33 Nordeste 0 -- -- 34
2019-09-05 19:00:00 20.3 10 Nordeste 39 Este 0 -- -- 30
2019-09-05 18:00:00 24.4 14 Sudoeste 36 Sudoeste 0 -- -- 17
2019-09-05 17:00:00 24.8 19 Sudoeste 35 Sudoeste 0 -- -- 18
2019-09-05 16:00:00 25.8 15 Sudoeste 31 Sudoeste 0 -- -- 22
2019-09-05 15:00:00 25.9 13 Sudoeste 27 Sudoeste 0 -- -- 27
2019-09-05 14:00:00 22.1 9 Este 25 Este 0 -- -- 39
2019-09-05 13:00:00 23.9 6 Sur 15 Sur 0 -- -- 37
2019-09-05 12:00:00 22 5 Sudoeste 13 Este 0 -- -- 40
2019-09-05 11:00:00 17.9 3 Este 9 Nordeste 0 -- -- 51
2019-09-05 10:00:00 15.5 3 Sudoeste 6 Este 0 -- -- 68
2019-09-05 09:00:00 12.1 3 Norte 10 Nordeste 0 -- -- 85
2019-09-05 08:00:00 9.9 3 Norte 6 Norte 0 -- -- 91
2019-09-05 07:00:00 9.6 0 Calma 4 Sudoeste 0 -- -- 91
2019-09-05 06:00:00 9.9 0 Calma 6 Norte 0 -- -- 90
2019-09-05 05:00:00 10.1 0 Calma 5 Sudeste 0 -- -- 88
2019-09-05 04:00:00 11 2 Norte 4 Norte 0 -- -- 85
2019-09-05 03:00:00 11.4 2 Nordeste 7 Norte 0 -- -- 82
2019-09-05 02:00:00 12.3 2 Noroeste 7 Norte 0 -- -- 79
2019-09-05 01:00:00 12.9 3 Noroeste 6 Norte 0 -- -- 76
2019-09-05 00:00:00 14 3 Norte 8 Noroeste 0 -- -- 71
2019-09-04 23:00:00 15.4 4 Norte 9 Norte 0 -- -- 66
2019-09-04 22:00:00 18.1 4 Nordeste 17 Este 0 -- -- 56
2019-09-04 21:00:00 20.1 10 Este 33 Este 0 -- -- 49
2019-09-04 20:00:00 23.1 20 Este 32 Nordeste 0 -- -- 41
2019-09-04 19:00:00 27.2 9 Oeste 26 Oeste 0 -- -- 36
2019-09-04 18:00:00 28.2 15 Oeste 28 Oeste 0 -- -- 34
2019-09-04 17:00:00 29.4 9 Oeste 23 Oeste 0 -- -- 33
2019-09-04 16:00:00 29.5 8 Oeste 19 Oeste 0 -- -- 32
2019-09-04 15:00:00 29.1 10 Oeste 22 Oeste 0 -- -- 32
2019-09-04 14:00:00 28.1 9 Sudoeste 18 Oeste 0 -- -- 33
2019-09-04 13:00:00 25.8 7 Oeste 15 Oeste 0 -- -- 37
2019-09-04 12:00:00 21.7 3 Sudeste 7 Sur 0 -- -- 45
2019-09-04 11:00:00 16.3 3 Sur 8 Sudeste 0 -- -- 56
2019-09-04 10:00:00 13.1 3 Este 11 Nordeste 0 -- -- 69
2019-09-04 09:00:00 8.4 3 Este 6 Este 0 -- -- 88
2019-09-04 08:00:00 6.3 0 Calma 4 Sudeste 0 -- -- 93
2019-09-04 07:00:00 6.9 0 Calma 8 Este 0 -- -- 92
2019-09-04 06:00:00 7.5 0 Calma 5 Este 0 -- -- 90
2019-09-04 05:00:00 8.2 0 Calma 4 Este 0 -- -- 89
2019-09-04 04:00:00 8.7 0 Calma 6 Sudeste 0 -- -- 88
2019-09-04 03:00:00 9.7 0 Calma 4 Nordeste 0 -- -- 84
2019-09-04 02:00:00 10.7 2 Nordeste 6 Sudeste 0 -- -- 81
2019-09-04 01:00:00 11.9 0 Calma 5 Nordeste 0 -- -- 76
2019-09-04 00:00:00 13 0 Calma 6 Norte 0 -- -- 70
2019-09-03 23:00:00 14.6 2 Norte 7 Norte 0 -- -- 65
2019-09-03 22:00:00 16.3 2 Noroeste 5 Norte 0 -- -- 60
2019-09-03 21:00:00 18.6 2 Noroeste 6 Oeste 0 -- -- 58
2019-09-03 20:00:00 23.4 3 Norte 18 Oeste 0 -- -- 43
2019-09-03 19:00:00 26.4 8 Oeste 20 Sudoeste 0 -- -- 33
2019-09-03 18:00:00 28.5 8 Oeste 18 Oeste 0 -- -- 28
2019-09-03 17:00:00 29.5 10 Oeste 19 Oeste 0 -- -- 20
2019-09-03 16:00:00 29.7 5 Oeste 13 Este 0 -- -- 16
2019-09-03 15:00:00 28.4 4 Sur 11 Sudoeste 0 -- -- 17
2019-09-03 14:00:00 26.4 6 Sudoeste 12 Sudoeste 0 -- -- 21
2019-09-03 13:00:00 23 5 Sur 10 Sudeste 0 -- -- 24
2019-09-03 12:00:00 19.1 4 Sudeste 12 Este 0 -- -- 34
2019-09-03 11:00:00 14.4 5 Sudeste 17 Este 0 -- -- 52
2019-09-03 10:00:00 11.8 7 Este 16 Este 0 -- -- 64
2019-09-03 09:00:00 6.8 3 Este 9 Este 0 -- -- 87
2019-09-03 08:00:00 4.4 0 Calma 5 Nordeste 0 -- -- 94
2019-09-03 07:00:00 4.8 2 Este 6 Norte 0 -- -- 92
2019-09-03 06:00:00 5.5 0 Calma 6 Norte 0 -- -- 88
2019-09-03 05:00:00 6.3 0 Calma 5 Este 0 -- -- 88
2019-09-03 04:00:00 7.2 0 Calma 7 Norte 0 -- -- 84
2019-09-03 03:00:00 8.3 2 Nordeste 5 Nordeste 0 -- -- 81
2019-09-03 02:00:00 9.4 3 Oeste 5 Noroeste 0 -- -- 79
2019-09-03 01:00:00 10.6 2 Oeste 8 Norte 0 -- -- 75
2019-09-03 00:00:00 11.8 3 Norte 14 Este 0 -- -- 70
2019-09-02 23:00:00 14.3 5 Nordeste 16 Este 0 -- -- 59
2019-09-02 22:00:00 16.1 6 Este 25 Este 0 -- -- 54
2019-09-02 21:00:00 17.7 4 Este 12 Este 0 -- -- 49
2019-09-02 20:00:00 18.8 4 Nordeste 32 Este 0 -- -- 51
2019-09-02 19:00:00 19.6 13 Este 39 Este 0 -- -- 53
2019-09-02 18:00:00 20.8 22 Este 37 Este 0 -- -- 55
2019-09-02 17:00:00 22.4 12 Este 34 Este 0 -- -- 53
2019-09-02 16:00:00 26.5 7 Oeste 26 Oeste 0 -- -- 39
2019-09-02 15:00:00 26.9 8 Oeste 19 Sudoeste 0 -- -- 38
2019-09-02 14:00:00 25.9 8 Oeste 18 Oeste 0 -- -- 39
2019-09-02 13:00:00 24.1 4 Oeste 12 Noroeste 0 -- -- 49
2019-09-02 12:00:00 21.5 4 Sur 9 Sur 0 -- -- 55
2019-09-02 11:00:00 18.2 4 Sur 12 Este 0 -- -- 70
2019-09-02 10:00:00 16.5 5 Este 10 Este 0 -- -- 74
2019-09-02 09:00:00 14.4 3 Nordeste 5 Nordeste 0 -- -- 89
2019-09-02 08:00:00 13.3 0 Calma 8 Norte 0 -- -- 91
2019-09-02 07:00:00 13.1 0 Calma 5 Norte 0 -- -- 89
2019-09-02 06:00:00 13.6 2 Noroeste 5 Noroeste 0 -- -- 91
2019-09-02 05:00:00 14.5 0 Calma 3 Noroeste 0 -- -- 89
2019-09-02 04:00:00 14.9 0 Calma 5 Oeste 0 -- -- 87
2019-09-02 03:00:00 15.1 0 Calma 13 Este 0 -- -- 82
2019-09-02 02:00:00 15.5 3 Este 5 Este 0 -- -- 81
2019-09-02 01:00:00 15.6 2 Norte 6 Norte 0 -- -- 79
2019-09-02 00:00:00 15.8 3 Noroeste 8 Oeste 0 -- -- 78
2019-09-01 23:00:00 16.4 4 Este 12 Este 0 -- -- 71
2019-09-01 22:00:00 17.6 6 Este 19 Este 0 -- -- 65
2019-09-01 21:00:00 18.5 5 Nordeste 23 Nordeste 0 -- -- 62
2019-09-01 20:00:00 20.3 14 Este 39 Este 0 -- -- 52
2019-09-01 19:00:00 22.7 24 Este 39 Este 0 -- -- 47
2019-09-01 18:00:00 26.7 7 Oeste 22 Oeste 0 -- -- 43
2019-09-01 17:00:00 28 8 Oeste 20 Sudoeste 0 -- -- 42
2019-09-01 16:00:00 25.5 7 Oeste 22 Oeste 0 -- -- 46
2019-09-01 15:00:00 26.3 8 Oeste 21 Oeste 0 -- -- 44
2019-09-01 14:00:00 23.2 3 Sudoeste 15 Este 0 -- -- 53
2019-09-01 13:00:00 19.5 11 Este 19 Este 0 -- -- 64
2019-09-01 12:00:00 15.8 8 Este 14 Este 0 -- -- 83
2019-09-01 11:00:00 14 0 Calma 7 Este 0 -- -- 91
2019-09-01 10:00:00 13.8 3 Sudeste 13 Este 0 -- -- 90
2019-09-01 09:00:00 11.8 2 Sur 9 Este 0 -- -- 98
2019-09-01 08:00:00 11.1 2 Este 6 Este 0 -- -- 98
2019-09-01 07:00:00 10.9 4 Este 10 Este 0 -- -- 97
2019-09-01 06:00:00 11.1 2 Norte 5 Este 0 -- -- 95
2019-09-01 05:00:00 11.5 3 Norte 7 Este 0 -- -- 94
2019-09-01 04:00:00 12 2 Sudeste 7 Nordeste 0 -- -- 94
2019-09-01 03:00:00 12.3 0 Calma 6 Norte 0 -- -- 92
2019-09-01 02:00:00 13.1 3 Nordeste 17 Este 0 -- -- 91
2019-09-01 01:00:00 13.4 4 Nordeste 10 Nordeste 0 -- -- 90
2019-09-01 00:00:00 14.2 4 Norte 6 Norte 0 -- -- 87
2019-08-31 23:00:00 15.3 0 Calma 7 Norte 0 -- -- 84
2019-08-31 22:00:00 16.4 6 Nordeste 10 Este 0 -- -- 79
2019-08-31 21:00:00 18.5 4 Este 15 Este 0 -- -- 72
2019-08-31 20:00:00 20.6 3 Sur 26 Este 0 -- -- 67
2019-08-31 19:00:00 20.9 7 Este 21 Este 0 -- -- 64
2019-08-31 18:00:00 21.9 17 Sudoeste 31 Este 0 -- -- 57
2019-08-31 17:00:00 27.9 7 Nordeste 25 Oeste 0 -- -- 35
2019-08-31 16:00:00 29.7 5 Sudoeste 13 Este 0 -- -- 31
2019-08-31 15:00:00 29.5 3 Sudeste 16 Nordeste 0 -- -- 28
2019-08-31 14:00:00 29 5 Sudoeste 10 Sudoeste 0 -- -- 31
2019-08-31 13:00:00 26 4 Sur 8 Sur 0 -- -- 42
2019-08-31 12:00:00 23.1 4 Sudeste 9 Este 0 -- -- 49
2019-08-31 11:00:00 18.3 4 Este 11 Este 0 -- -- 68
2019-08-31 10:00:00 15.5 8 Este 15 Nordeste 0 -- -- 82
2019-08-31 09:00:00 10.9 2 Este 5 Este 0 -- -- 99
2019-08-31 08:00:00 10 0 Calma 4 Este 0 -- -- 98
2019-08-31 07:00:00 10.1 2 Nordeste 6 Este 0 -- -- 97
2019-08-31 06:00:00 10.7 2 Este 4 Este 0 -- -- 97
2019-08-31 05:00:00 10.6 0 Calma 4 Nordeste 0 -- -- 94
2019-08-31 04:00:00 11.3 0 Calma 5 Norte 0 -- -- 93
2019-08-31 03:00:00 12 0 Calma 6 Norte 0 -- -- 90
2019-08-31 02:00:00 12.7 0 Calma 5 Norte 0 -- -- 88
2019-08-31 01:00:00 13.5 3 Norte 9 Norte 0 -- -- 86
2019-08-31 00:00:00 14.4 3 Norte 6 Norte 0 -- -- 85
2019-08-30 23:00:00 15.4 2 Nordeste 5 Nordeste 0 -- -- 82
2019-08-30 22:00:00 17 0 Calma 6 Noroeste 0 -- -- 80
2019-08-30 21:00:00 18.9 2 Norte 9 Oeste 0 -- -- 73
2019-08-30 20:00:00 20.3 3 Oeste 12 Noroeste 0 -- -- 66
2019-08-30 19:00:00 21.5 2 Oeste 8 Sudoeste 0 -- -- 70
2019-08-30 18:00:00 22.8 3 Sudeste 24 Este 0 -- -- 61
2019-08-30 17:00:00 26.8 9 Nordeste 20 Nordeste 0 -- -- 45
2019-08-30 16:00:00 25.3 6 Sur 18 Norte 0 -- -- 47
2019-08-30 15:00:00 29.7 5 Oeste 18 Oeste 0 -- -- 37
2019-08-30 14:00:00 27.9 8 Oeste 16 Sudoeste 0.2 -- -- 45
2019-08-30 13:00:00 25 5 Oeste 9 Oeste 0 -- -- 52
2019-08-30 12:00:00 21.3 3 Sur 6 Sudeste 0 -- -- 60
2019-08-30 11:00:00 16.7 3 Sudeste 9 Este 0 -- -- 87
2019-08-30 10:00:00 13.8 3 Sudeste 8 Este 0 -- -- 98
2019-08-30 09:00:00 12.6 2 Este 5 Este 0 -- -- 98
2019-08-30 08:00:00 12.1 0 Calma 6 Sudeste 0 -- -- 98
2019-08-30 07:00:00 12.3 0 Calma 4 Norte 0 -- -- 96
2019-08-30 06:00:00 12.7 0 Calma 3 Oeste 0 -- -- 96
2019-08-30 05:00:00 13.1 0 Calma 4 Norte 0 -- -- 97
2019-08-30 04:00:00 13 0 Calma 5 Nordeste 0 -- -- 97
2019-08-30 03:00:00 13.1 3 Nordeste 5 Norte 0 -- -- 95
2019-08-30 02:00:00 13.8 3 Norte 7 Norte 0 -- -- 94
2019-08-30 01:00:00 14.7 0 Calma 4 Norte 0 -- -- 94
2019-08-30 00:00:00 15.3 0 Calma 4 Norte 0 -- -- 94
2019-08-29 23:00:00 15.7 3 Norte 13 Oeste 0 -- -- 94
2019-08-29 22:00:00 15.8 7 Noroeste 14 Noroeste 0 -- -- 94
2019-08-29 21:00:00 15.7 5 Noroeste 13 Oeste 0 -- -- 92
2019-08-29 20:00:00 16 4 Oeste 11 Oeste 1 -- -- 90
2019-08-29 19:00:00 17.2 6 Sudoeste 40 Sudoeste 9.2 -- -- 84
2019-08-29 18:00:00 22.4 9 Noroeste 31 Noroeste 2.2 -- -- 65
2019-08-29 17:00:00 30.6 8 Sudoeste 17 Sudoeste 0 -- -- 35
2019-08-29 16:00:00 30.1 6 Sudoeste 18 Oeste 0 -- -- 33
2019-08-29 15:00:00 29.4 3 Sudoeste 17 Oeste 0 -- -- 37
2019-08-29 14:00:00 27.9 5 Oeste 13 Oeste 0 -- -- 41
2019-08-29 13:00:00 26.6 4 Sudoeste 9 Noroeste 0 -- -- 45
2019-08-29 12:00:00 23.9 3 Este 9 Este 0 -- -- 47
2019-08-29 11:00:00 19.7 4 Sudeste 9 Este 0 -- -- 58
2019-08-29 10:00:00 17 3 Este 14 Este 0 -- -- 71
2019-08-29 09:00:00 12.6 2 Este 5 Sudeste 0 -- -- 91
2019-08-29 08:00:00 10.6 2 Este 5 Norte 0 -- -- 95
2019-08-29 07:00:00 10.8 0 Calma 3 Nordeste 0 -- -- 93
2019-08-29 06:00:00 11.5 0 Calma 9 Este 0 -- -- 92
2019-08-29 05:00:00 12.1 0 Calma 6 Nordeste 0 -- -- 92
2019-08-29 04:00:00 12.9 2 Norte 6 Nordeste 0 -- -- 87
2019-08-29 03:00:00 13.8 0 Calma 7 Nordeste 0 -- -- 86
2019-08-29 02:00:00 14.8 4 Norte 9 Noroeste 0 -- -- 79
2019-08-29 01:00:00 16.1 3 Noroeste 10 Nordeste 0 -- -- 76
2019-08-29 00:00:00 17.5 5 Nordeste 12 Norte 0 -- -- 73
2019-08-28 23:00:00 19.4 4 Nordeste 12 Nordeste 0 -- -- 68
2019-08-28 22:00:00 19.3 5 Nordeste 13 Norte 0 -- -- 65
2019-08-28 21:00:00 21.5 4 Nordeste 23 Este 0 -- -- 58
2019-08-28 20:00:00 23 8 Este 21 Este 0 -- -- 52
2019-08-28 19:00:00 23.5 10 Este 21 Este 0 -- -- 52
2019-08-28 18:00:00 25.4 2 Norte 6 Norte 0 -- -- 47
2019-08-28 17:00:00 25.5 3 Oeste 16 Oeste 0 -- -- 43
2019-08-28 16:00:00 25.4 8 Oeste 16 Oeste 0 -- -- 44
2019-08-28 15:00:00 26.3 6 Sudoeste 21 Oeste 0 -- -- 42
2019-08-28 14:00:00 28.2 9 Oeste 21 Sudoeste 0 -- -- 40
2019-08-28 13:00:00 26.2 4 Sur 13 Nordeste 0 -- -- 39
2019-08-28 12:00:00 23.6 4 Sudeste 12 Sudeste 0 -- -- 48
2019-08-28 11:00:00 19.3 3 Sudeste 10 Este 0 -- -- 67
2019-08-28 10:00:00 17.5 5 Este 12 Este 0 -- -- 73
2019-08-28 09:00:00 12.5 3 Sudeste 9 Este 0 -- -- 95
2019-08-28 08:00:00 11 2 Nordeste 4 Nordeste 0 -- -- 95
2019-08-28 07:00:00 11.1 0 Calma 3 Nordeste 0 -- -- 94
2019-08-28 06:00:00 11.9 0 Calma 4 Nordeste 0 -- -- 93
2019-08-28 05:00:00 12.7 0 Calma 4 Nordeste 0 -- -- 90
2019-08-28 04:00:00 13.5 0 Calma 4 Nordeste 0 -- -- 90
2019-08-28 03:00:00 14.7 0 Calma 4 Nordeste 0 -- -- 84
2019-08-28 02:00:00 15.7 0 Calma 4 Norte 0 -- -- 83
2019-08-28 01:00:00 16 0 Calma 5 Norte 0 -- -- 80
2019-08-28 00:00:00 16.7 2 Norte 9 Oeste 0 -- -- 74
2019-08-27 23:00:00 18.2 3 Noroeste 10 Oeste 0 -- -- 68
2019-08-27 22:00:00 19 0 Calma 5 Norte 0 -- -- 71
2019-08-27 21:00:00 19.9 0 Calma 8 Norte 0 -- -- 65
2019-08-27 20:00:00 21.7 4 Noroeste 10 Noroeste 0 -- -- 57
2019-08-27 19:00:00 23.1 5 Nordeste 13 Este 0 -- -- 50
2019-08-27 18:00:00 23.3 5 Este 18 Nordeste 0 -- -- 48
2019-08-27 17:00:00 23.7 5 Este 23 Este 0 -- -- 50
2019-08-27 16:00:00 23.2 4 Sudeste 17 Este 0 -- -- 52
2019-08-27 15:00:00 21 5 Este 12 Este 0 -- -- 62
2019-08-27 14:00:00 19.9 4 Oeste 8 Oeste 0 -- -- 70
2019-08-27 13:00:00 20.1 0 Calma 13 Este 0 -- -- 64
2019-08-27 12:00:00 17.8 10 Este 15 Este 0 -- -- 76
2019-08-27 11:00:00 16.6 0 Calma 9 Este 0 -- -- 81
2019-08-27 10:00:00 15.3 2 Sudoeste 15 Nordeste 0 -- -- 90
2019-08-27 09:00:00 14.1 0 Calma 10 Este 0 -- -- 93
2019-08-27 08:00:00 14 2 Norte 6 Nordeste 0 -- -- 92
2019-08-27 07:00:00 14.1 4 Oeste 8 Noroeste 0 -- -- 87
2019-08-27 06:00:00 14.2 2 Noroeste 9 Norte 0 -- -- 84
2019-08-27 05:00:00 14.4 0 Calma 9 Nordeste 0 -- -- 84
2019-08-27 04:00:00 14.5 4 Oeste 23 Este 0 -- -- 78
2019-08-27 03:00:00 14.9 2 Nordeste 10 Norte 0 -- -- 73
2019-08-27 02:00:00 14.6 0 Calma 4 Oeste 0 -- -- 74
2019-08-27 01:00:00 15 0 Calma 4 Oeste 0 -- -- 71
2019-08-27 00:00:00 15.7 2 Nordeste 4 Norte 0 -- -- 65
2019-08-26 23:00:00 16.6 0 Calma 4 Norte 0 -- -- 61
2019-08-26 22:00:00 17.8 2 Oeste 7 Noroeste 0 -- -- 58
2019-08-26 21:00:00 19.9 3 Norte 9 Norte 0 -- -- 52
2019-08-26 20:00:00 22.8 0 Calma 6 Norte 0 -- -- 48
2019-08-26 19:00:00 25.6 0 Calma 13 Oeste 0 -- -- 42
2019-08-26 18:00:00 27.3 5 Oeste 26 Oeste 0 -- -- 33
2019-08-26 17:00:00 27.9 12 Oeste 27 Oeste 0 -- -- 29
2019-08-26 16:00:00 29 8 Oeste 22 Oeste 0 -- -- 32
2019-08-26 15:00:00 28.8 7 Sudoeste 16 Oeste 0 -- -- 31
2019-08-26 14:00:00 28.2 5 Sudeste 18 Este 0 -- -- 29
2019-08-26 13:00:00 26.9 5 Este 13 Nordeste 0 -- -- 32
2019-08-26 12:00:00 23.7 2 Sur 7 Sudeste 0 -- -- 48
2019-08-26 11:00:00 20.2 4 Sudeste 10 Este 0 -- -- 59
2019-08-26 10:00:00 18.1 8 Este 14 Este 0 -- -- 65
2019-08-26 09:00:00 13 2 Sur 6 Este 0 -- -- 88
2019-08-26 08:00:00 11.1 0 Calma 6 Norte 0 -- -- 93
2019-08-26 07:00:00 11.5 4 Este 8 Nordeste 0 -- -- 92
2019-08-26 06:00:00 12.1 2 Nordeste 4 Nordeste 0 -- -- 86
2019-08-26 05:00:00 12.9 2 Norte 5 Nordeste 0 -- -- 81
2019-08-26 04:00:00 14.1 2 Norte 5 Norte 0 -- -- 78
2019-08-26 03:00:00 15.4 0 Calma 4 Norte 0 -- -- 77
2019-08-26 02:00:00 16.7 0 Calma 4 Este 0 -- -- 75
2019-08-26 01:00:00 18.1 0 Calma 4 Noroeste 0 -- -- 69
2019-08-26 00:00:00 19 0 Calma 5 Noroeste 0 -- -- 65
2019-08-25 23:00:00 20.7 3 Este 12 Este 0 -- -- 57
2019-08-25 22:00:00 22 3 Nordeste 27 Nordeste 0 -- -- 53
2019-08-25 21:00:00 23.1 15 Este 26 Nordeste 0 -- -- 49
2019-08-25 20:00:00 25.1 5 Norte 13 Sudoeste 0 -- -- 44
2019-08-25 19:00:00 27.2 3 Sur 12 Sudoeste 0 -- -- 37
2019-08-25 18:00:00 29.4 7 Sudoeste 17 Sudoeste 0 -- -- 32
2019-08-25 17:00:00 29.3 4 Sudoeste 9 Sur 0 -- -- 37
2019-08-25 16:00:00 29.5 5 Sur 13 Sudeste 0 -- -- 31
2019-08-25 15:00:00 30 5 Oeste 13 Oeste 0 -- -- 29
2019-08-25 14:00:00 29.3 6 Sudoeste 13 Oeste 0 -- -- 32
2019-08-25 13:00:00 27.5 4 Sudoeste 11 Oeste 0 -- -- 34
2019-08-25 12:00:00 24 3 Sudeste 8 Sudeste 0 -- -- 41
2019-08-25 11:00:00 19.9 3 Sudeste 8 Sudeste 0 -- -- 54
2019-08-25 10:00:00 17.4 4 Este 13 Este 0 -- -- 67
2019-08-25 09:00:00 12.2 3 Este 10 Este 0 -- -- 91
2019-08-25 08:00:00 10.3 0 Calma 3 Sur 0 -- -- 95
2019-08-25 07:00:00 10.4 0 Calma 3 Nordeste 0 -- -- 89
2019-08-25 06:00:00 11.2 2 Nordeste 4 Nordeste 0 -- -- 87
2019-08-25 05:00:00 12.1 0 Calma 6 Este 0 -- -- 91
2019-08-25 04:00:00 12.8 0 Calma 4 Norte 0 -- -- 87
2019-08-25 03:00:00 13.7 3 Nordeste 7 Norte 0 -- -- 78
2019-08-25 02:00:00 15 0 Calma 5 Nordeste 0 -- -- 75
2019-08-25 01:00:00 16.2 2 Nordeste 8 Norte 0 -- -- 68
2019-08-25 00:00:00 17.9 2 Norte 9 Norte 0 -- -- 64
2019-08-24 23:00:00 19.7 3 Norte 10 Norte 0 -- -- 65
2019-08-24 22:00:00 21.9 2 Sudeste 19 Nordeste 0 -- -- 60
2019-08-24 21:00:00 22.3 7 Nordeste 30 Este 0 -- -- 58
2019-08-24 20:00:00 23.6 16 Este 32 Este 0 -- -- 51
2019-08-24 19:00:00 25.9 9 Este 33 Nordeste 0 -- -- 44
2019-08-24 18:00:00 29.8 8 Oeste 19 Oeste 0 -- -- 34
2019-08-24 17:00:00 29.4 9 Oeste 18 Oeste 0 -- -- 36
2019-08-24 16:00:00 29.9 8 Sudoeste 19 Oeste 0 -- -- 33
2019-08-24 15:00:00 30.2 9 Sudoeste 20 Oeste 0 -- -- 33
2019-08-24 14:00:00 29.9 8 Oeste 18 Oeste 0 -- -- 32
2019-08-24 13:00:00 27.5 8 Oeste 18 Oeste 0 -- -- 40
2019-08-24 12:00:00 23.8 3 Sudeste 8 Sudeste 0 -- -- 53
2019-08-24 11:00:00 20.4 4 Este 9 Este 0 -- -- 62
2019-08-24 10:00:00 17.1 3 Este 12 Este 0 -- -- 75
2019-08-24 09:00:00 13.1 2 Este 4 Este 0 -- -- 90
2019-08-24 08:00:00 11 0 Calma 4 Sudeste 0 -- -- 95
2019-08-24 07:00:00 11 0 Calma 2 Nordeste 0 -- -- 93
2019-08-24 06:00:00 11.5 0 Calma 3 Sur 0 -- -- 91
2019-08-24 05:00:00 12.1 2 Nordeste 4 Nordeste 0 -- -- 90
2019-08-24 04:00:00 12.8 0 Calma 3 Nordeste 0 -- -- 88
2019-08-24 03:00:00 13.4 0 Calma 4 Norte 0 -- -- 85
2019-08-24 02:00:00 14.3 2 Nordeste 4 Nordeste 0 -- -- 82
2019-08-24 01:00:00 15.3 0 Calma 5 Norte 0 -- -- 78
2019-08-24 00:00:00 16.4 0 Calma 5 Noroeste 0 -- -- 75
2019-08-23 23:00:00 17.9 0 Calma 12 Este 0 -- -- 71
2019-08-23 22:00:00 19.2 2 Sudeste 10 Este 0 -- -- 67
2019-08-23 21:00:00 21.4 0 Calma 8 Nordeste 0 -- -- 56
2019-08-23 20:00:00 24.3 2 Este 6 Sudoeste 0 -- -- 47
2019-08-23 19:00:00 26.4 5 Sudoeste 11 Sudoeste 0 -- -- 41
2019-08-23 18:00:00 28.6 4 Sudoeste 15 Sudoeste 0 -- -- 35
2019-08-23 17:00:00 29.2 6 Oeste 16 Oeste 0 -- -- 34
2019-08-23 16:00:00 28.8 4 Sur 21 Oeste 0 -- -- 36
2019-08-23 15:00:00 28.6 9 Oeste 21 Oeste 0 -- -- 36
2019-08-23 14:00:00 28 6 Oeste 16 Oeste 0 -- -- 33
2019-08-23 13:00:00 25.9 7 Oeste 12 Oeste 0 -- -- 37
2019-08-23 12:00:00 22.2 3 Sudeste 12 Este 0 -- -- 45
2019-08-23 11:00:00 18.6 3 Sudeste 8 Sudeste 0 -- -- 52
2019-08-23 10:00:00 15.3 3 Este 11 Este 0 -- -- 67
2019-08-23 09:00:00 11.2 8 Este 14 Este 0 -- -- 83
2019-08-23 08:00:00 8 0 Calma 2 Este 0 -- -- 94
2019-08-23 07:00:00 8 0 Calma 4 Nordeste 0 -- -- 91
2019-08-23 06:00:00 8.6 0 Calma 3 Nordeste 0 -- -- 90
2019-08-23 05:00:00 9.3 0 Calma 5 Sur 0 -- -- 89
2019-08-23 04:00:00 9.9 2 Sudoeste 10 Este 0 -- -- 87
2019-08-23 03:00:00 10.9 2 Nordeste 4 Nordeste 0 -- -- 79
2019-08-23 02:00:00 11.7 2 Nordeste 4 Nordeste 0 -- -- 74
2019-08-23 01:00:00 13 0 Calma 5 Nordeste 0 -- -- 70
2019-08-23 00:00:00 15 0 Calma 6 Norte 0 -- -- 62